createdAt,value
2022-09-10T00:01:39.286Z,1.17
2022-09-10T00:04:13.066Z,1.15
2022-09-10T00:06:42.363Z,1.40
2022-09-10T00:09:11.073Z,2.33
2022-09-10T00:11:41.144Z,1.38
2022-09-10T00:14:11.351Z,1.33
2022-09-10T00:16:39.901Z,1.70
2022-09-10T00:19:08.428Z,1.50
2022-09-10T00:21:38.371Z,1.60
2022-09-10T00:24:07.796Z,1.50
2022-09-10T00:26:39.308Z,1.25
2022-09-10T00:29:09.582Z,1.50
2022-09-10T00:31:38.386Z,1.50
2022-09-10T00:34:09.123Z,1.77
2022-09-10T00:36:40.900Z,1.38
2022-09-10T00:39:11.818Z,1.38
2022-09-10T00:41:41.982Z,1.42
2022-09-10T00:44:42.627Z,1.77
2022-09-10T00:47:15.601Z,1.42
2022-09-10T00:49:47.850Z,1.58
2022-09-10T00:52:18.189Z,1.27
2022-09-10T00:54:48.925Z,1.05
2022-09-10T00:57:21.634Z,1.27
2022-09-10T00:59:53.248Z,1.40
2022-09-10T01:02:21.938Z,1.00
2022-09-10T01:04:51.514Z,1.35
2022-09-10T01:07:22.945Z,2.03
2022-09-10T01:09:51.188Z,1.50
2022-09-10T01:12:36.130Z,1.98
2022-09-10T01:15:18.766Z,1.42
2022-09-10T01:17:59.652Z,0.90
2022-09-10T01:21:04.143Z,1.50
2022-09-10T01:24:12.320Z,1.33
2022-09-10T01:27:10.376Z,1.15
2022-09-10T01:29:49.250Z,1.40
2022-09-10T01:32:24.730Z,1.52
2022-09-10T01:34:57.537Z,1.38
2022-09-10T01:37:30.058Z,1.00
2022-09-10T01:40:00.225Z,1.25
2022-09-10T01:42:32.010Z,1.83
2022-09-10T01:45:01.443Z,1.15
2022-09-10T01:47:48.012Z,1.27
2022-09-10T01:50:25.798Z,1.50
2022-09-10T01:53:10.241Z,1.25
2022-09-10T01:55:48.449Z,1.30
2022-09-10T01:58:24.756Z,1.23
2022-09-10T02:01:15.380Z,1.60
2022-09-10T02:03:47.802Z,1.10
2022-09-10T02:06:21.525Z,1.40
2022-09-10T02:08:56.534Z,1.20
2022-09-10T02:11:26.568Z,1.40
2022-09-10T02:13:55.962Z,1.40
2022-09-10T02:16:47.613Z,1.58
2022-09-10T02:19:17.914Z,1.25
2022-09-10T02:21:51.462Z,1.35
2022-09-10T02:24:20.195Z,1.20
2022-09-10T02:26:49.047Z,1.20
2022-09-10T02:29:19.519Z,1.30
2022-09-10T02:31:49.174Z,1.70
2022-09-10T02:34:17.755Z,1.25
2022-09-10T02:36:48.490Z,1.10
2022-09-10T02:39:16.895Z,1.13
2022-09-10T02:41:48.073Z,1.73
2022-09-10T02:44:16.645Z,1.15
2022-09-10T02:46:45.328Z,1.23
2022-09-10T02:49:16.677Z,1.55
2022-09-10T02:51:45.042Z,1.20
2022-09-10T02:54:13.266Z,1.30
2022-09-10T02:56:41.501Z,1.63
2022-09-10T02:59:09.838Z,1.35
2022-09-10T03:01:38.654Z,1.27
2022-09-10T03:04:06.869Z,1.02
2022-09-10T03:06:37.126Z,1.73
2022-09-10T03:09:05.870Z,1.10
2022-09-10T03:11:34.938Z,1.15
2022-09-10T03:14:03.142Z,1.05
2022-09-10T03:16:32.854Z,1.10
2022-09-10T03:19:02.912Z,1.00
2022-09-10T03:21:34.383Z,1.17
2022-09-10T03:24:05.308Z,1.02
2022-09-10T03:26:34.136Z,1.20
2022-09-10T03:29:02.409Z,1.70
2022-09-10T03:31:36.250Z,1.00
2022-09-10T03:34:04.464Z,0.90
2022-09-10T03:36:32.659Z,1.10
2022-09-10T03:39:03.005Z,1.08
2022-09-10T03:41:32.790Z,1.20
2022-09-10T03:44:01.971Z,1.60
2022-09-10T03:46:30.207Z,1.40
2022-09-10T03:49:02.299Z,1.35
2022-09-10T03:51:31.221Z,1.13
2022-09-10T03:54:00.094Z,1.10
2022-09-10T03:56:30.082Z,0.88
2022-09-10T03:58:58.414Z,1.10
2022-09-10T04:01:29.070Z,0.80
2022-09-10T04:03:58.382Z,1.08
2022-09-10T04:06:28.541Z,1.10
2022-09-10T04:08:56.999Z,0.80
2022-09-10T04:11:27.526Z,1.13
2022-09-10T04:13:58.702Z,1.15
2022-09-10T04:16:27.446Z,1.40
2022-09-10T04:18:55.676Z,1.35
2022-09-10T04:21:24.694Z,0.95
2022-09-10T04:23:55.714Z,1.08
2022-09-10T04:26:24.092Z,1.00
2022-09-10T04:28:52.537Z,1.17
2022-09-10T04:31:22.289Z,1.27
2022-09-10T04:33:53.642Z,1.08
2022-09-10T04:36:25.772Z,0.90
2022-09-10T04:38:53.944Z,1.05
2022-09-10T04:41:21.986Z,1.20
2022-09-10T04:43:50.708Z,0.73
2022-09-10T04:46:18.842Z,1.23
2022-09-10T04:48:52.097Z,1.10
2022-09-10T04:51:23.492Z,1.15
2022-09-10T04:53:54.288Z,1.00
2022-09-10T04:56:27.103Z,1.08
2022-09-10T04:58:55.253Z,1.13
2022-09-10T05:01:23.407Z,0.95
2022-09-10T05:03:55.466Z,1.23
2022-09-10T05:06:24.256Z,1.00
2022-09-10T05:08:52.289Z,1.40
2022-09-10T05:11:20.688Z,1.00
2022-09-10T05:13:49.529Z,1.30
2022-09-10T05:16:22.036Z,1.23
2022-09-10T05:18:50.340Z,1.20
2022-09-10T05:21:20.657Z,1.42
2022-09-10T05:23:49.027Z,1.25
2022-09-10T05:26:17.271Z,1.75
2022-09-10T05:28:45.564Z,0.98
2022-09-10T05:31:17.439Z,0.80
2022-09-10T05:33:46.324Z,0.80
2022-09-10T05:36:15.742Z,1.00
2022-09-10T05:38:46.555Z,1.02
2022-09-10T05:41:16.614Z,1.23
2022-09-10T05:43:47.612Z,1.00
2022-09-10T05:46:16.262Z,1.00
2022-09-10T05:48:47.631Z,1.10
2022-09-10T05:51:16.132Z,0.93
2022-09-10T05:53:46.564Z,0.82
2022-09-10T05:56:14.747Z,0.90
2022-09-10T05:58:45.085Z,1.00
2022-09-10T06:01:15.481Z,0.85
2022-09-10T06:03:44.747Z,1.75
2022-09-10T06:06:12.857Z,1.15
2022-09-10T06:08:51.929Z,0.90
2022-09-10T06:11:27.603Z,0.90
2022-09-10T06:13:55.875Z,1.00
2022-09-10T06:16:26.335Z,1.15
2022-09-10T06:18:57.269Z,1.10
2022-09-10T06:21:28.377Z,1.30
2022-09-10T06:23:59.764Z,1.05
2022-09-10T06:26:32.033Z,1.30
2022-09-10T06:29:06.283Z,1.25
2022-09-10T06:31:35.761Z,0.90
2022-09-10T06:34:04.869Z,0.95
2022-09-10T06:36:34.066Z,1.20
2022-09-10T06:39:04.520Z,1.23
2022-09-10T06:41:45.827Z,1.58
2022-09-10T06:44:32.782Z,0.90
2022-09-10T06:50:01.970Z,1.40
2022-09-10T06:52:32.352Z,1.00
2022-09-10T06:55:06.259Z,1.55
2022-09-10T06:57:40.124Z,1.65
2022-09-10T07:00:10.507Z,0.90
2022-09-10T07:02:39.532Z,1.02
2022-09-10T07:05:08.793Z,0.93
2022-09-10T07:07:38.832Z,1.13
2022-09-10T07:10:10.864Z,1.20
2022-09-10T07:12:40.076Z,1.05
2022-09-10T07:15:10.281Z,1.00
2022-09-10T07:17:49.495Z,1.00
2022-09-10T07:20:18.689Z,1.23
2022-09-10T07:22:53.264Z,1.10
2022-09-10T07:25:30.045Z,2.00
2022-09-10T07:28:07.004Z,1.00
2022-09-10T07:30:38.238Z,1.15
2022-09-10T07:33:06.359Z,1.20
2022-09-10T07:35:36.190Z,1.38
2022-09-10T07:38:05.032Z,3.03
2022-09-10T07:40:37.220Z,1.45
2022-09-10T07:43:07.372Z,1.23
2022-09-10T07:45:35.997Z,1.05
2022-09-10T07:48:06.237Z,1.02
2022-09-10T07:50:38.855Z,0.90
2022-09-10T07:53:07.562Z,1.20
2022-09-10T07:55:38.487Z,1.40
2022-09-10T07:58:07.351Z,1.52
2022-09-10T08:00:36.661Z,1.15
2022-09-10T08:03:33.110Z,1.33
2022-09-10T08:06:09.314Z,1.10
2022-09-10T08:08:56.777Z,1.55
2022-09-10T08:11:44.195Z,1.48
2022-09-10T08:14:41.795Z,1.58
2022-09-10T08:17:18.754Z,1.20
2022-09-10T08:20:03.841Z,1.75
2022-09-10T08:23:08.051Z,1.35
2022-09-10T08:25:38.134Z,1.58
2022-09-10T08:28:11.024Z,1.30
2022-09-10T08:31:19.609Z,1.20
2022-09-10T08:33:59.837Z,1.95
2022-09-10T08:36:31.568Z,1.35
2022-09-10T08:39:08.076Z,1.88
2022-09-10T08:41:48.653Z,1.55
2022-09-10T08:44:34.830Z,1.13
2022-09-10T08:47:26.333Z,1.58
2022-09-10T08:50:02.685Z,2.15
2022-09-10T08:52:39.063Z,1.83
2022-09-10T08:55:25.863Z,2.95
2022-09-10T08:57:59.547Z,1.90
2022-09-10T09:00:34.821Z,1.80
2022-09-10T09:03:13.803Z,1.30
2022-09-10T09:05:47.726Z,1.52
2022-09-10T09:08:22.070Z,1.45
2022-09-10T09:11:00.737Z,1.40
2022-09-10T09:13:43.127Z,1.42
2022-09-10T09:16:32.345Z,1.88
2022-09-10T09:19:17.361Z,1.50
2022-09-10T09:22:39.901Z,1.83
2022-09-10T09:25:23.476Z,1.75
2022-09-10T09:27:56.362Z,1.70
2022-09-10T09:30:33.077Z,1.73
2022-09-10T09:33:14.932Z,1.70
2022-09-10T09:35:48.608Z,1.95
2022-09-10T09:43:08.397Z,1.40
2022-09-10T09:49:56.487Z,1.20
2022-09-10T09:52:39.851Z,1.30
2022-09-10T09:55:23.819Z,1.40
2022-09-10T09:58:13.482Z,0.90
2022-09-10T10:00:41.830Z,1.10
2022-09-10T10:03:19.618Z,1.35
2022-09-10T10:05:49.519Z,1.23
2022-09-10T10:08:30.986Z,1.00
2022-09-10T10:10:59.850Z,1.20
2022-09-10T10:13:37.497Z,1.23
2022-09-10T10:16:17.058Z,1.50
2022-09-10T10:18:46.270Z,1.00
2022-09-10T10:21:19.958Z,1.35
2022-09-10T10:23:50.370Z,1.27
2022-09-10T10:26:27.826Z,1.10
2022-09-10T10:29:00.171Z,1.20
2022-09-10T10:31:41.279Z,1.48
2022-09-10T10:34:33.512Z,1.05
2022-09-10T10:37:09.548Z,1.20
2022-09-10T10:40:14.367Z,1.30
2022-09-10T10:42:51.289Z,1.02
2022-09-10T10:45:34.232Z,1.30
2022-09-10T10:48:10.115Z,1.20
2022-09-10T10:50:47.021Z,1.05
2022-09-10T10:53:35.964Z,1.13
2022-09-10T10:56:16.016Z,1.08
2022-09-10T10:59:09.599Z,1.02
2022-09-10T11:02:01.102Z,1.48
2022-09-10T11:04:43.344Z,1.15
2022-09-10T11:10:20.962Z,0.95
2022-09-10T11:12:58.017Z,1.30
2022-09-10T11:15:35.073Z,1.15
2022-09-10T11:18:11.623Z,1.35
2022-09-10T11:20:45.080Z,1.20
2022-09-10T11:23:27.834Z,1.27
2022-09-10T11:26:02.522Z,1.55
2022-09-10T11:28:36.938Z,1.00
2022-09-10T11:31:14.892Z,1.05
2022-09-10T11:33:58.160Z,1.58
2022-09-10T11:36:37.668Z,1.13
2022-09-10T11:39:25.057Z,1.60
2022-09-10T11:42:00.037Z,1.33
2022-09-10T11:44:46.021Z,1.25
2022-09-10T11:47:26.358Z,1.63
2022-09-10T11:50:06.112Z,1.40
2022-09-10T11:52:39.652Z,1.20
2022-09-10T11:55:18.030Z,1.23
2022-09-10T11:58:02.588Z,1.20
2022-09-10T12:00:42.132Z,1.27
2022-09-10T12:03:43.583Z,1.10
2022-09-10T12:06:23.429Z,1.20
2022-09-10T12:09:07.267Z,1.50
2022-09-10T12:11:48.271Z,1.30
2022-09-10T12:14:20.958Z,1.30
2022-09-10T12:16:54.575Z,0.95
2022-09-10T12:19:32.823Z,1.15
2022-09-10T12:22:05.735Z,1.27
2022-09-10T12:24:40.849Z,1.50
2022-09-10T12:27:20.456Z,1.27
2022-09-10T12:29:49.998Z,1.30
2022-09-10T12:32:38.922Z,1.15
2022-09-10T12:35:48.837Z,1.55
2022-09-10T12:38:50.628Z,1.65
2022-09-10T12:41:57.376Z,1.25
2022-09-10T12:44:46.254Z,1.33
2022-09-10T12:47:54.015Z,1.00
2022-09-10T12:50:47.353Z,1.00
2022-09-10T12:53:53.855Z,1.33
2022-09-10T12:56:58.540Z,1.20
2022-09-10T13:00:12.551Z,1.20
2022-09-10T13:02:51.468Z,1.33
2022-09-10T13:05:30.461Z,1.38
2022-09-10T13:08:21.143Z,1.20
2022-09-10T13:11:14.830Z,1.00
2022-09-10T13:13:49.018Z,1.13
2022-09-10T13:16:21.580Z,1.23
2022-09-10T13:18:57.006Z,1.30
2022-09-10T13:21:55.182Z,1.00
2022-09-10T13:24:59.637Z,0.98
2022-09-10T13:27:40.174Z,1.05
2022-09-10T13:30:25.616Z,1.10
2022-09-10T13:32:58.190Z,1.15
2022-09-10T13:36:06.301Z,1.00
2022-09-10T13:39:12.376Z,1.08
2022-09-10T13:41:58.697Z,1.50
2022-09-10T13:44:39.285Z,1.48
2022-09-10T13:47:14.084Z,1.10
2022-09-10T13:49:52.463Z,1.55
2022-09-10T13:52:26.215Z,1.10
2022-09-10T13:54:56.883Z,1.50
2022-09-10T13:57:31.219Z,1.25
2022-09-10T14:00:05.869Z,1.30
2022-09-10T14:02:45.167Z,1.17
2022-09-10T14:05:29.915Z,1.10
2022-09-10T14:08:02.703Z,1.00
2022-09-10T14:10:32.025Z,1.67
2022-09-10T14:13:02.330Z,1.27
2022-09-10T14:15:36.616Z,1.30
2022-09-10T14:18:05.165Z,1.40
2022-09-10T14:20:35.414Z,1.30
2022-09-10T14:23:05.558Z,1.50
2022-09-10T14:25:35.847Z,1.20
2022-09-10T14:28:21.930Z,1.20
2022-09-10T14:30:55.495Z,1.80
2022-09-10T14:33:32.876Z,1.35
2022-09-10T14:36:20.212Z,1.42
2022-09-10T14:39:00.315Z,1.60
2022-09-10T14:41:31.749Z,1.33
2022-09-10T14:44:31.951Z,1.30
2022-09-10T14:47:04.735Z,1.27
2022-09-10T14:49:36.070Z,1.50
2022-09-10T14:52:06.326Z,1.25
2022-09-10T14:54:36.333Z,1.00
2022-09-10T14:57:10.008Z,1.58
2022-09-10T14:59:41.524Z,1.80
2022-09-10T15:02:18.310Z,1.40
2022-09-10T15:04:47.081Z,1.40
2022-09-10T15:07:17.728Z,1.50
2022-09-10T15:09:48.285Z,1.67
2022-09-10T15:12:21.978Z,1.90
2022-09-10T15:14:56.759Z,2.00
2022-09-10T15:17:29.105Z,2.20
2022-09-10T15:19:59.650Z,2.90
2022-09-10T15:22:32.748Z,3.65
2022-09-10T15:25:16.640Z,2.15
2022-09-10T15:27:48.304Z,2.25
2022-09-10T15:30:19.437Z,1.98
2022-09-10T15:32:55.369Z,2.08
2022-09-10T15:35:28.634Z,1.88
2022-09-10T15:37:58.345Z,1.50
2022-09-10T15:40:26.479Z,1.83
2022-09-10T15:42:54.429Z,1.70
2022-09-10T15:45:24.231Z,1.60
2022-09-10T15:47:52.183Z,1.92
2022-09-10T15:50:20.335Z,1.55
2022-09-10T15:52:48.426Z,1.50
2022-09-10T15:55:16.812Z,1.75
2022-09-10T15:57:45.044Z,2.22
2022-09-10T16:00:14.451Z,1.70
2022-09-10T16:02:48.011Z,1.77
2022-09-10T16:05:16.167Z,1.80
2022-09-10T16:07:44.595Z,1.52
2022-09-10T16:10:13.301Z,1.63
2022-09-10T16:12:41.456Z,1.80
2022-09-10T16:15:10.485Z,1.67
2022-09-10T16:17:38.648Z,1.65
2022-09-10T16:20:09.269Z,1.30
2022-09-10T16:22:37.439Z,1.70
2022-09-10T16:25:08.407Z,1.50
2022-09-10T16:27:39.463Z,2.40
2022-09-10T16:30:11.284Z,1.48
2022-09-10T16:32:39.342Z,1.98
2022-09-10T16:35:09.611Z,3.63
2022-09-10T16:37:37.667Z,2.10
2022-09-10T16:40:07.168Z,2.80
2022-09-10T16:42:35.166Z,2.08
2022-09-10T16:45:03.157Z,1.90
2022-09-10T16:47:31.310Z,1.50
2022-09-10T16:49:59.339Z,1.83
2022-09-10T16:52:29.231Z,1.42
2022-09-10T16:54:57.463Z,1.60
2022-09-10T16:57:25.465Z,1.38
2022-09-10T16:59:59.732Z,1.50
2022-09-10T17:02:29.000Z,1.30
2022-09-10T17:04:56.934Z,1.50
2022-09-10T17:07:24.942Z,1.50
2022-09-10T17:09:58.723Z,2.17
2022-09-10T17:12:28.756Z,1.40
2022-09-10T17:14:56.765Z,1.67
2022-09-10T17:17:26.091Z,1.75
2022-09-10T17:19:57.693Z,2.17
2022-09-10T17:22:30.231Z,2.00
2022-09-10T17:25:02.855Z,2.10
2022-09-10T17:27:36.587Z,1.85
2022-09-10T17:30:11.176Z,2.17
2022-09-10T17:32:41.237Z,1.60
2022-09-10T17:35:11.588Z,1.65
2022-09-10T17:37:42.844Z,1.70
2022-09-10T17:40:17.094Z,1.58
2022-09-10T17:42:50.687Z,1.58
2022-09-10T17:45:21.478Z,1.38
2022-09-10T17:47:51.038Z,1.50
2022-09-10T17:50:20.406Z,1.40
2022-09-10T17:52:49.218Z,2.15
2022-09-10T17:55:20.856Z,1.50
2022-09-10T17:57:53.165Z,2.17
2022-09-10T18:00:24.799Z,1.70
2022-09-10T18:02:55.259Z,1.38
2022-09-10T18:05:27.488Z,1.58
2022-09-10T18:07:55.981Z,1.70
2022-09-10T18:10:25.377Z,1.70
2022-09-10T18:12:57.124Z,2.70
2022-09-10T18:15:29.854Z,1.70
2022-09-10T18:17:59.501Z,1.88
2022-09-10T18:20:29.095Z,1.70
2022-09-10T18:22:59.458Z,1.80
2022-09-10T18:25:30.720Z,1.60
2022-09-10T18:28:01.419Z,1.90
2022-09-10T18:30:30.106Z,1.30
2022-09-10T18:32:58.387Z,1.55
2022-09-10T18:35:26.460Z,1.30
2022-09-10T18:37:56.770Z,1.80
2022-09-10T18:40:24.859Z,1.55
2022-09-10T18:42:54.307Z,2.10
2022-09-10T18:45:22.811Z,1.75
2022-09-10T18:47:50.849Z,1.70
2022-09-10T18:50:18.736Z,2.03
2022-09-10T18:52:46.703Z,1.90
2022-09-10T18:55:15.984Z,1.80
2022-09-10T18:57:44.104Z,1.45
2022-09-10T19:00:14.685Z,1.67
2022-09-10T19:02:45.613Z,1.80
2022-09-10T19:05:14.076Z,1.95
2022-09-10T19:07:42.027Z,1.65
2022-09-10T19:10:10.070Z,2.10
2022-09-10T19:12:38.214Z,2.00
2022-09-10T19:15:06.878Z,2.13
2022-09-10T19:17:36.286Z,1.85
2022-09-10T19:20:04.695Z,2.05
2022-09-10T19:22:33.106Z,1.85
2022-09-10T19:25:01.354Z,1.98
2022-09-10T19:27:29.674Z,1.85
2022-09-10T19:29:57.637Z,1.80
2022-09-10T19:32:25.704Z,1.33
2022-09-10T19:34:55.471Z,1.58
2022-09-10T19:37:24.342Z,1.70
2022-09-10T19:39:52.338Z,1.50
2022-09-10T19:42:20.651Z,1.20
2022-09-10T19:44:48.795Z,1.63
2022-09-10T19:47:16.728Z,1.45
2022-09-10T19:49:44.677Z,1.50
2022-09-10T19:52:14.804Z,1.52
2022-09-10T19:54:42.853Z,1.67
2022-09-10T19:57:11.144Z,1.60
2022-09-10T19:59:39.119Z,1.80
2022-09-10T20:02:07.654Z,1.63
2022-09-10T20:04:36.593Z,2.17
2022-09-10T20:07:04.722Z,2.05
2022-09-10T20:09:39.234Z,2.50
2022-09-10T20:12:08.803Z,2.17
2022-09-10T20:14:37.374Z,2.35
2022-09-10T20:17:05.998Z,1.80
2022-09-10T20:19:34.221Z,1.48
2022-09-10T20:22:02.263Z,1.90
2022-09-10T20:24:30.353Z,1.70
2022-09-10T20:26:59.804Z,1.35
2022-09-10T20:29:28.697Z,1.63
2022-09-10T20:31:56.720Z,1.60
2022-09-10T20:34:25.495Z,1.80
2022-09-10T20:36:53.504Z,1.65
2022-09-10T20:39:25.282Z,1.60
2022-09-10T20:41:53.734Z,1.90
2022-09-10T20:44:23.326Z,1.60
2022-09-10T20:46:51.477Z,1.80
2022-09-10T20:49:19.701Z,2.05
2022-09-10T20:51:48.261Z,1.48
2022-09-10T20:54:18.373Z,1.83
2022-09-10T20:56:46.683Z,2.10
2022-09-10T20:59:16.140Z,1.75
2022-09-10T21:01:47.112Z,1.63
2022-09-10T21:04:16.056Z,2.08
2022-09-10T21:06:44.351Z,1.85
2022-09-10T21:09:13.073Z,2.00
2022-09-10T21:11:41.492Z,1.90
2022-09-10T21:14:11.100Z,1.85
2022-09-10T21:16:41.409Z,2.00
2022-09-10T21:19:13.194Z,2.10
2022-09-10T21:21:43.078Z,2.20
2022-09-10T21:24:13.410Z,1.63
2022-09-10T21:26:43.352Z,1.67
2022-09-10T21:29:14.478Z,1.80
2022-09-10T21:31:43.280Z,2.85
2022-09-10T21:34:15.370Z,1.80
2022-09-10T21:36:43.818Z,2.05
2022-09-10T21:39:14.326Z,1.48
2022-09-10T21:41:45.101Z,1.50
2022-09-10T21:44:15.359Z,1.90
2022-09-10T21:46:44.575Z,1.80
2022-09-10T21:49:14.746Z,1.80
2022-09-10T21:51:43.223Z,2.10
2022-09-10T21:54:15.967Z,1.50
2022-09-10T21:56:44.110Z,1.88
2022-09-10T21:59:13.205Z,2.03
2022-09-10T22:01:43.778Z,2.03
2022-09-10T22:04:18.861Z,2.42
2022-09-10T22:06:49.770Z,1.90
2022-09-10T22:09:18.232Z,2.63
2022-09-10T22:11:50.143Z,1.92
2022-09-10T22:14:21.037Z,2.35
2022-09-10T22:16:49.345Z,1.75
2022-09-10T22:19:21.054Z,1.80
2022-09-10T22:21:50.161Z,1.70
2022-09-10T22:24:19.305Z,1.90
2022-09-10T22:26:48.598Z,2.10
2022-09-10T22:29:18.811Z,1.80
2022-09-10T22:31:46.959Z,1.95
2022-09-10T22:34:16.900Z,2.25
2022-09-10T22:36:48.509Z,2.00
2022-09-10T22:39:19.165Z,2.08
2022-09-10T22:41:48.679Z,1.60
2022-09-10T22:44:17.730Z,1.75
2022-09-10T22:46:46.179Z,1.98
2022-09-10T22:49:16.093Z,2.28
2022-09-10T22:51:44.675Z,2.33
2022-09-10T22:54:15.096Z,1.88
2022-09-10T22:56:44.589Z,2.30
2022-09-10T22:59:14.820Z,2.55
2022-09-10T23:01:47.421Z,2.30
2022-09-10T23:04:16.978Z,2.58
2022-09-10T23:06:45.260Z,2.63
2022-09-10T23:09:16.447Z,2.30
2022-09-10T23:11:45.846Z,2.60
2022-09-10T23:14:17.733Z,2.53
2022-09-10T23:16:48.978Z,2.30
2022-09-10T23:19:18.699Z,2.90
2022-09-10T23:21:49.363Z,2.63
2022-09-10T23:24:20.589Z,2.45
2022-09-10T23:26:49.024Z,3.60
2022-09-10T23:29:18.027Z,2.55
2022-09-10T23:31:47.975Z,2.17
2022-09-10T23:34:18.584Z,2.20
2022-09-10T23:37:06.146Z,2.28
2022-09-10T23:39:35.905Z,2.65
2022-09-10T23:42:04.303Z,2.63
2022-09-10T23:44:32.709Z,2.45
2022-09-10T23:47:00.824Z,2.60
2022-09-10T23:49:28.980Z,2.60
2022-09-10T23:51:57.199Z,1.88
2022-09-10T23:54:25.252Z,3.33
2022-09-10T23:56:54.777Z,3.28
2022-09-10T23:59:22.924Z,2.78
